Huvudsida
METAR-TAF:

METAR-TAF

Flygplatser :

Koksijde, Belgien

latitud: 51-05N, longitud: 002-39E, höjd: 4 m

Aktuellt väderrapport

Denna rapport gjordes för 26 minuter sedan, klockan 20:25 UTC
Vind 7 kt från nord/nordost
Temperatur 13°C
Fuktighet 88%
Tryck 1035 hPa
Sikt 10 km eller mer

METAR: EBFN 272025Z AUTO 02007KT 9999 NCD 13/11 Q1035 BLU

Tid: 22:51 (20:51 UTC)

Väderprognos

Denna rapport gjordes för 5 timmar och 10 minuter sedan, klockan 15:41 UTC
Prognos gäller från 27 kl. 19 UTC till 28 kl. 07 UTC
Vind 15 kt från nord/nordost
Sikt 10 km eller mer
Få moln på en höjd av 25000 ft
Blir
från 28 kl. 02 UTC till 28 kl. 04 UTC
Vind 12 kt från ost/nordost

TAF: EBFN 271541Z 2719/2807 03015KT 9999 FEW250 BECMG 2802/2804 07012KT

Aktuella väderrapporter och prognoser från 4000 flygplatser (METAR- och TAF-rapporter).

De tillgängliga stationerna syns som gula och röda prickar på kartan.

För musen över prickarna för att se namnen på stationerna.

Klicka sedan för att få väderrapporter och prognoser.

För att ändra kartan: Klicka på de gröna knapparna med ett svart kors på för att zooma in; den gröna knappen med ett streck på för att zooma ut; eller på de gröna pilarna för angränsande kartor.


METAR-TAF: